Time;durP1;ratioP1;P1;durP2;ratioP2;P2;SDS_P1;SDS_P2;PMS_P1;PMS_P2;Temp;Humidity;BMP_temperature;BMP_pressure;BME280_temperature;BME280_humidity;BME280_pressure;Samples;Min_cycle;Max_cycle;Signal;HPM_P1;HPM_P2
2021/03/13 00:00:27;;;;;;;7.40;2.33;;;6.60;1.00;;;;;;5023212;28;20208;-73
2021/03/13 00:02:53;;;;;;;5.23;2.20;;;6.50;1.00;;;;;;5022446;28;20504;-73
2021/03/13 00:05:24;;;;;;;5.53;1.63;;;6.60;1.00;;;;;;5020667;28;20445;-73
2021/03/13 00:07:50;;;;;;;5.27;1.93;;;6.50;1.00;;;;;;5016120;28;20701;-73
2021/03/13 00:10:16;;;;;;;4.20;2.37;;;6.50;1.00;;;;;;5028234;28;20442;-73
2021/03/13 00:12:42;;;;;;;3.70;2.70;;;6.50;1.00;;;;;;5023206;28;20518;-73
2021/03/13 00:15:13;;;;;;;13.73;2.73;;;6.50;1.00;;;;;;5018648;28;20575;-73
2021/03/13 00:17:40;;;;;;;7.80;2.40;;;6.50;1.00;;;;;;5024022;28;20810;-73
2021/03/13 00:20:06;;;;;;;9.03;2.00;;;6.50;1.00;;;;;;5019451;28;20584;-73
2021/03/13 00:22:31;;;;;;;7.63;2.30;;;6.50;1.00;;;;;;5023940;28;20986;-73
2021/03/13 00:24:57;;;;;;;7.10;2.23;;;6.50;1.00;;;;;;5019522;28;20456;-73
2021/03/13 00:27:23;;;;;;;8.27;1.43;;;6.40;1.00;;;;;;5025463;28;20214;-73
2021/03/13 00:29:49;;;;;;;5.50;2.47;;;6.40;1.00;;;;;;5026034;28;20210;-73
2021/03/13 00:32:14;;;;;;;6.23;2.03;;;6.40;1.00;;;;;;5022472;28;20490;-73
2021/03/13 00:34:40;;;;;;;11.13;3.57;;;6.40;1.00;;;;;;5007058;28;20183;-73
2021/03/13 00:37:06;;;;;;;8.43;2.10;;;6.50;1.00;;;;;;5021582;28;20679;-73
2021/03/13 00:39:31;;;;;;;6.40;1.93;;;6.40;1.00;;;;;;5023920;28;20203;-73
2021/03/13 00:41:57;;;;;;;7.70;2.60;;;6.50;1.00;;;;;;5024737;28;21020;-72
2021/03/13 00:44:23;;;;;;;14.90;2.60;;;6.50;1.00;;;;;;5022942;28;22297;-73
2021/03/13 00:46:48;;;;;;;12.63;2.27;;;6.50;1.00;;;;;;5022654;28;20187;-73
2021/03/13 00:49:14;;;;;;;5.73;2.13;;;6.40;1.00;;;;;;5020670;28;20187;-73
2021/03/13 00:51:40;;;;;;;6.30;1.50;;;6.50;1.00;;;;;;5029556;28;20329;-72
2021/03/13 00:54:06;;;;;;;6.17;2.37;;;6.50;1.00;;;;;;5035475;28;20603;-72
2021/03/13 00:56:31;;;;;;;15.50;2.37;;;6.50;1.00;;;;;;5036528;28;20458;-72
2021/03/13 00:58:57;;;;;;;12.73;2.97;;;6.50;1.00;;;;;;5038701;28;20654;-72
2021/03/13 01:01:23;;;;;;;6.70;2.27;;;6.40;1.00;;;;;;5034366;28;20180;-71
2021/03/13 01:03:49;;;;;;;7.37;2.10;;;6.40;1.00;;;;;;5022168;28;20680;-72
2021/03/13 01:06:15;;;;;;;11.77;2.97;;;6.40;1.00;;;;;;5031588;28;20190;-71
2021/03/13 01:08:41;;;;;;;6.50;2.30;;;6.40;1.00;;;;;;5022762;28;20745;-73
2021/03/13 01:11:15;;;;;;;14.13;2.20;;;6.40;1.00;;;;;;5016210;28;20451;-71
2021/03/13 01:13:46;;;;;;;8.30;2.60;;;6.40;1.00;;;;;;5005590;28;20445;-72
2021/03/13 01:16:12;;;;;;;7.63;2.13;;;6.40;1.00;;;;;;5023076;28;20484;-72
2021/03/13 01:18:39;;;;;;;5.13;2.40;;;6.30;1.00;;;;;;5005428;28;20454;-72
2021/03/13 01:21:09;;;;;;;7.33;2.47;;;6.20;1.00;;;;;;5016269;28;20478;-73
2021/03/13 01:23:43;;;;;;;4.90;2.00;;;6.20;1.00;;;;;;5022160;28;20468;-72
2021/03/13 01:26:13;;;;;;;3.33;1.60;;;6.30;1.00;;;;;;5014039;28;20833;-71
2021/03/13 01:28:39;;;;;;;4.70;1.73;;;6.20;1.00;;;;;;5020020;28;20433;-72
2021/03/13 01:31:16;;;;;;;7.53;3.40;;;6.20;1.00;;;;;;5007278;28;20735;-72
2021/03/13 01:33:42;;;;;;;3.30;2.27;;;6.10;1.00;;;;;;5012555;28;20459;-72
2021/03/13 01:36:10;;;;;;;7.83;2.83;;;6.10;1.00;;;;;;5000047;28;20843;-72
2021/03/13 01:38:38;;;;;;;4.23;2.27;;;6.20;1.00;;;;;;5020105;28;20445;-72
2021/03/13 01:41:06;;;;;;;5.83;1.87;;;6.10;1.00;;;;;;4997745;28;20465;-72
2021/03/13 01:43:32;;;;;;;7.33;2.97;;;6.00;1.00;;;;;;5001242;28;20563;-72
2021/03/13 01:45:59;;;;;;;10.33;3.30;;;6.10;1.00;;;;;;5015901;28;20437;-72
2021/03/13 01:48:36;;;;;;;5.53;3.03;;;6.10;1.00;;;;;;5019300;28;20537;-72
2021/03/13 01:51:06;;;;;;;3.00;2.23;;;6.10;1.00;;;;;;5008064;28;21107;-72
2021/03/13 01:53:32;;;;;;;8.30;2.97;;;6.00;1.00;;;;;;5027299;28;20526;-72
2021/03/13 01:55:59;;;;;;;6.53;3.30;;;6.00;1.00;;;;;;5006592;28;20462;-72
2021/03/13 01:58:25;;;;;;;6.00;3.07;;;6.00;1.00;;;;;;5001489;28;20465;-72
2021/03/13 02:00:57;;;;;;;4.70;2.97;;;5.90;1.00;;;;;;5022268;28;20760;-72
2021/03/13 02:03:23;;;;;;;7.07;3.43;;;5.80;1.00;;;;;;5004176;28;20476;-72
2021/03/13 02:05:51;;;;;;;6.63;3.20;;;5.90;1.00;;;;;;5026442;28;20463;-72
2021/03/13 02:08:43;;;;;;;6.53;3.13;;;5.90;9.60;;;;;;5007727;28;21250;-72
2021/03/13 02:11:24;;;;;;;11.63;3.00;;;5.80;82.70;;;;;;5007719;28;20834;-72
2021/03/13 02:14:23;;;;;;;5.57;3.57;;;5.80;99.90;;;;;;5018393;28;20498;-72
2021/03/13 02:17:03;;;;;;;4.50;2.40;;;5.70;81.40;;;;;;5021896;28;20834;-73
2021/03/13 02:19:54;;;;;;;4.40;3.50;;;5.70;99.90;;;;;;5001942;28;20433;-73
2021/03/13 02:22:22;;;;;;;9.30;4.00;;;5.70;99.90;;;;;;5016651;28;20472;-72
2021/03/13 02:25:12;;;;;;;12.60;4.03;;;5.70;99.90;;;;;;5005573;28;20445;-72
2021/03/13 02:28:04;;;;;;;7.57;3.50;;;5.60;99.90;;;;;;5001436;28;20572;-72
2021/03/13 02:30:32;;;;;;;4.97;3.13;;;5.60;99.90;;;;;;5004176;28;20445;-72
2021/03/13 02:33:11;;;;;;;7.30;3.80;;;5.60;99.90;;;;;;5003314;28;20507;-72
2021/03/13 02:36:01;;;;;;;9.80;4.00;;;5.60;99.90;;;;;;5005457;28;20445;-73
2021/03/13 02:38:43;;;;;;;8.07;3.80;;;5.50;99.90;;;;;;5000814;28;20448;-73
2021/03/13 02:41:19;;;;;;;7.83;3.40;;;5.50;99.90;;;;;;5017489;28;20495;-72
2021/03/13 02:43:51;;;;;;;5.10;2.80;;;5.60;99.90;;;;;;5004003;28;20514;-73
2021/03/13 02:46:22;;;;;;;2.60;2.40;;;5.50;99.90;;;;;;5013386;28;20442;-72
2021/03/13 02:48:50;;;;;;;6.30;3.37;;;5.50;99.90;;;;;;5017399;28;21103;-72
2021/03/13 02:51:23;;;;;;;3.83;2.50;;;5.50;99.90;;;;;;5013746;28;20455;-73
2021/03/13 02:53:51;;;;;;;4.83;2.97;;;5.50;99.90;;;;;;5004199;28;20445;-73
2021/03/13 02:56:19;;;;;;;4.03;3.03;;;5.50;99.90;;;;;;5016051;28;20493;-72
2021/03/13 02:58:50;;;;;;;8.73;3.40;;;5.50;99.90;;;;;;5003355;28;20445;-73
2021/03/13 03:01:20;;;;;;;4.07;3.20;;;5.40;99.90;;;;;;4999939;28;20575;-73
2021/03/13 03:03:49;;;;;;;5.50;2.83;;;5.40;99.90;;;;;;5006335;28;20482;-73
2021/03/13 03:06:23;;;;;;;3.87;2.93;;;5.50;99.90;;;;;;5011547;28;20447;-73
2021/03/13 03:08:52;;;;;;;5.33;3.97;;;5.50;1.00;;;;;;5005518;28;21295;-72
2021/03/13 03:11:25;;;;;;;11.43;3.87;;;5.50;1.00;;;;;;5009624;28;24909;-73
2021/03/13 03:13:55;;;;;;;7.00;3.20;;;5.50;1.00;;;;;;5009480;28;20441;-73
2021/03/13 03:16:24;;;;;;;7.00;3.70;;;5.50;1.00;;;;;;5006169;28;20510;-72
2021/03/13 03:18:54;;;;;;;3.77;3.30;;;5.50;1.00;;;;;;5006591;28;20924;-74
2021/03/13 03:21:22;;;;;;;9.80;3.70;;;5.50;1.00;;;;;;5010550;28;20580;-73
2021/03/13 03:23:49;;;;;;;3.70;3.40;;;5.50;1.00;;;;;;5006670;28;20951;-75
2021/03/13 03:26:16;;;;;;;4.90;4.00;;;5.50;1.00;;;;;;5016734;28;20745;-74
2021/03/13 03:28:42;;;;;;;6.87;3.70;;;5.50;12.20;;;;;;5009541;28;20540;-75
2021/03/13 03:31:14;;;;;;;5.30;3.93;;;5.50;83.90;;;;;;5004520;28;20643;-76
2021/03/13 03:33:41;;;;;;;4.00;3.60;;;5.40;96.40;;;;;;5019917;28;20572;-75
2021/03/13 03:36:10;;;;;;;7.63;3.80;;;5.40;99.90;;;;;;5018738;28;20599;-75
2021/03/13 03:38:38;;;;;;;6.67;3.70;;;5.40;99.90;;;;;;5018947;28;20445;-74
2021/03/13 03:41:06;;;;;;;4.40;3.27;;;5.40;1.00;;;;;;5019643;28;20478;-74
2021/03/13 03:43:44;;;;;;;4.37;2.93;;;5.40;1.00;;;;;;5018079;28;20460;-74
2021/03/13 03:46:15;;;;;;;3.83;3.40;;;5.40;99.90;;;;;;5005856;28;20967;-75
2021/03/13 03:48:41;;;;;;;6.37;3.27;;;5.40;99.90;;;;;;5004842;28;20694;-76
2021/03/13 03:51:14;;;;;;;3.20;2.70;;;5.40;99.90;;;;;;5004265;28;20448;-75
2021/03/13 03:53:49;;;;;;;3.80;2.40;;;5.40;63.60;;;;;;5006585;28;21036;-75
2021/03/13 03:56:19;;;;;;;4.80;2.70;;;5.40;1.00;;;;;;5022840;28;21157;-75
2021/03/13 03:58:47;;;;;;;4.73;2.70;;;5.40;99.90;;;;;;5022287;28;21877;-74
2021/03/13 04:01:15;;;;;;;6.40;2.80;;;5.40;99.90;;;;;;5004134;28;20467;-75
2021/03/13 04:03:53;;;;;;;3.43;3.13;;;5.50;99.90;;;;;;5020258;28;20475;-74
2021/03/13 04:06:20;;;;;;;4.97;2.90;;;5.40;99.90;;;;;;5023657;28;21215;-75
2021/03/13 04:08:49;;;;;;;2.93;2.63;;;5.50;1.00;;;;;;5020443;28;20607;-74
2021/03/13 04:11:16;;;;;;;3.10;2.57;;;5.40;99.90;;;;;;5014991;28;20477;-75
2021/03/13 04:13:43;;;;;;;2.63;2.10;;;5.40;1.00;;;;;;5020341;28;20482;-74
2021/03/13 04:16:13;;;;;;;3.00;1.87;;;5.40;99.90;;;;;;5019849;28;20457;-75
2021/03/13 04:18:40;;;;;;;3.20;1.67;;;5.40;99.90;;;;;;5020315;28;20566;-75
2021/03/13 04:21:06;;;;;;;1.70;1.60;;;5.40;1.00;;;;;;5022392;28;20496;-75
2021/03/13 04:23:36;;;;;;;2.73;1.97;;;5.50;99.90;;;;;;5019162;28;20480;-75
2021/03/13 04:26:03;;;;;;;2.00;1.53;;;5.50;99.90;;;;;;5020209;28;20515;-75
2021/03/13 04:28:29;;;;;;;4.10;1.63;;;5.50;1.00;;;;;;5018834;28;20981;-74
2021/03/13 04:30:55;;;;;;;3.20;1.30;;;5.50;99.90;;;;;;5019199;28;21069;-75
2021/03/13 04:33:21;;;;;;;5.73;2.00;;;5.50;1.00;;;;;;5019488;28;20195;-75
2021/03/13 04:35:49;;;;;;;2.00;1.07;;;5.50;99.90;;;;;;5024881;28;20480;-75
2021/03/13 04:38:17;;;;;;;1.40;1.07;;;5.50;1.00;;;;;;5023171;28;20459;-75
2021/03/13 04:40:48;;;;;;;1.10;1.00;;;5.60;99.90;;;;;;5022278;28;20511;-75
2021/03/13 04:43:15;;;;;;;1.20;0.90;;;5.60;99.90;;;;;;5021984;28;20473;-75
2021/03/13 04:45:43;;;;;;;1.83;1.27;;;5.60;1.00;;;;;;5020961;28;20453;-74
2021/03/13 04:48:10;;;;;;;1.73;1.10;;;5.60;1.00;;;;;;5019538;28;20445;-75
2021/03/13 04:50:36;;;;;;;1.73;1.33;;;5.60;1.00;;;;;;5020440;28;20448;-75
2021/03/13 04:53:02;;;;;;;3.53;2.23;;;5.60;1.00;;;;;;5018913;28;20513;-74
2021/03/13 04:55:28;;;;;;;1.43;1.00;;;5.60;99.90;;;;;;5021597;28;20194;-75
2021/03/13 04:57:55;;;;;;;5.20;1.60;;;5.60;99.90;;;;;;5021077;28;20464;-74
2021/03/13 05:00:21;;;;;;;1.87;1.20;;;5.60;99.90;;;;;;5014359;28;20916;-76
2021/03/13 05:02:47;;;;;;;2.43;1.20;;;5.60;1.00;;;;;;5023630;28;20933;-75
2021/03/13 05:05:13;;;;;;;2.00;1.00;;;5.60;1.00;;;;;;5003144;28;20458;-74
2021/03/13 05:07:39;;;;;;;3.70;1.30;;;5.50;12.20;;;;;;5020247;28;20183;-75
2021/03/13 05:10:07;;;;;;;1.47;1.00;;;5.60;99.90;;;;;;5022415;28;21049;-74
2021/03/13 05:12:33;;;;;;;2.17;1.57;;;5.60;47.90;;;;;;5021874;28;20200;-75
2021/03/13 05:15:00;;;;;;;2.27;1.50;;;5.60;99.90;;;;;;5016336;28;20537;-75
2021/03/13 05:17:25;;;;;;;5.10;1.10;;;5.50;99.90;;;;;;5020720;28;20446;-75
2021/03/13 05:19:51;;;;;;;1.67;1.10;;;5.60;99.90;;;;;;5018942;28;20561;-74
2021/03/13 05:22:17;;;;;;;4.37;1.53;;;5.60;99.90;;;;;;5023679;28;20369;-75
2021/03/13 05:24:43;;;;;;;2.00;1.60;;;5.60;99.90;;;;;;5023635;28;20225;-75
2021/03/13 05:27:08;;;;;;;3.10;1.83;;;5.60;99.90;;;;;;5004705;28;20309;-74
2021/03/13 05:29:34;;;;;;;3.80;1.40;;;5.60;99.90;;;;;;5020253;28;20570;-75
2021/03/13 05:32:00;;;;;;;1.77;1.40;;;5.70;99.90;;;;;;5021146;28;20198;-75
2021/03/13 05:34:26;;;;;;;1.20;1.07;;;5.70;99.90;;;;;;5025423;28;20480;-75
2021/03/13 05:36:51;;;;;;;1.40;1.30;;;5.70;99.90;;;;;;5023084;28;20208;-75
2021/03/13 05:39:17;;;;;;;2.40;1.63;;;5.70;99.90;;;;;;5021837;28;20913;-74
2021/03/13 05:41:44;;;;;;;1.80;1.37;;;5.70;99.90;;;;;;5022294;28;20183;-74
2021/03/13 05:44:11;;;;;;;2.50;1.20;;;5.70;99.90;;;;;;5019589;28;20354;-74
2021/03/13 05:46:42;;;;;;;2.40;0.97;;;5.80;99.90;;;;;;5024040;28;20449;-75
2021/03/13 05:49:08;;;;;;;1.87;1.00;;;5.80;99.90;;;;;;5017748;28;20472;-74
2021/03/13 05:51:36;;;;;;;2.50;1.20;;;5.80;99.90;;;;;;5021258;28;20440;-75
2021/03/13 05:54:04;;;;;;;1.40;1.00;;;5.90;99.90;;;;;;5022473;28;20437;-74
2021/03/13 05:56:30;;;;;;;4.43;1.20;;;5.90;99.90;;;;;;5023039;28;20606;-75
2021/03/13 05:58:58;;;;;;;1.10;0.80;;;6.00;99.90;;;;;;5018697;28;20466;-74
2021/03/13 06:01:28;;;;;;;1.53;1.00;;;6.00;99.90;;;;;;5017193;28;20446;-75
2021/03/13 06:03:55;;;;;;;1.37;0.80;;;6.00;99.90;;;;;;5020003;28;20797;-74
2021/03/13 06:06:25;;;;;;;3.30;1.10;;;6.00;99.90;;;;;;5012385;28;20433;-73
2021/03/13 06:08:52;;;;;;;1.30;1.00;;;6.00;99.90;;;;;;5018538;28;21095;-73
2021/03/13 06:11:19;;;;;;;1.20;0.90;;;6.00;99.90;;;;;;5024119;28;20537;-74
2021/03/13 06:13:46;;;;;;;1.20;0.80;;;6.00;99.90;;;;;;5019809;28;20478;-74
2021/03/13 06:16:11;;;;;;;1.67;1.00;;;6.00;99.90;;;;;;5017326;28;20450;-74
2021/03/13 06:19:03;;;;;;;1.97;1.20;;;6.00;99.90;;;;;;5022039;28;20565;-73
2021/03/13 06:21:40;;;;;;;3.53;1.50;;;6.00;99.90;;;;;;5014618;28;20424;-75
2021/03/13 06:24:18;;;;;;;1.27;1.00;;;6.10;99.90;;;;;;5021260;28;20457;-73
2021/03/13 06:27:01;;;;;;;2.90;1.53;;;6.10;99.90;;;;;;5019518;28;20449;-75
2021/03/13 06:29:28;;;;;;;1.60;1.03;;;6.10;99.90;;;;;;5029715;28;20971;-74
2021/03/13 06:32:07;;;;;;;1.10;0.70;;;6.10;99.90;;;;;;5029015;28;20513;-74
2021/03/13 06:34:32;;;;;;;5.27;1.67;;;6.10;99.90;;;;;;5026713;28;20830;-75
2021/03/13 06:37:24;;;;;;;3.73;1.43;;;6.10;99.90;;;;;;5032187;28;20449;-74
2021/03/13 06:39:51;;;;;;;4.07;0.90;;;6.20;99.90;;;;;;5033299;28;20210;-73
2021/03/13 06:42:24;;;;;;;1.73;1.00;;;6.20;99.90;;;;;;5035948;28;20481;-74
2021/03/13 06:45:19;;;;;;;2.47;1.40;;;6.20;99.90;;;;;;5023223;28;20911;-74
2021/03/13 06:47:45;;;;;;;2.67;1.10;;;6.20;99.90;;;;;;5029404;28;20980;-74
2021/03/13 06:50:12;;;;;;;3.47;1.70;;;6.20;99.90;;;;;;5028873;28;20506;-74
2021/03/13 06:52:39;;;;;;;2.40;1.10;;;6.20;99.90;;;;;;5035275;28;20495;-73
2021/03/13 06:55:06;;;;;;;2.60;1.00;;;6.30;99.90;;;;;;5029107;28;22087;-74
2021/03/13 06:57:32;;;;;;;1.70;1.20;;;6.20;99.90;;;;;;5032925;28;20460;-74
2021/03/13 07:00:01;;;;;;;3.73;1.43;;;6.30;99.90;;;;;;5033545;28;21397;-73
2021/03/13 07:02:27;;;;;;;2.30;1.37;;;6.30;99.90;;;;;;5032675;28;20998;-73
2021/03/13 07:05:05;;;;;;;1.67;1.23;;;6.30;99.90;;;;;;5026585;28;20446;-74
2021/03/13 07:07:31;;;;;;;2.40;1.10;;;6.40;99.90;;;;;;5034453;28;20767;-74
2021/03/13 07:09:59;;;;;;;2.70;1.23;;;6.30;99.90;;;;;;5034256;28;20803;-74
2021/03/13 07:12:37;;;;;;;1.63;1.23;;;6.40;99.90;;;;;;5036728;28;20822;-74
2021/03/13 07:15:38;;;;;;;2.20;1.23;;;6.40;99.90;;;;;;5018163;28;20444;-75
2021/03/13 07:18:04;;;;;;;1.57;0.87;;;6.50;99.90;;;;;;5027485;28;20480;-73
2021/03/13 07:20:32;;;;;;;2.40;0.97;;;6.50;99.90;;;;;;5012174;28;20448;-73
2021/03/13 07:23:01;;;;;;;1.90;1.03;;;6.50;99.90;;;;;;5034563;28;20207;-74
2021/03/13 07:25:28;;;;;;;1.97;1.47;;;6.50;99.90;;;;;;5036560;28;20603;-73
2021/03/13 07:27:58;;;;;;;5.37;1.30;;;6.60;99.90;;;;;;5036418;28;20468;-73
2021/03/13 07:30:26;;;;;;;2.23;1.13;;;6.60;99.90;;;;;;5032002;28;20839;-73
2021/03/13 07:33:11;;;;;;;1.53;1.07;;;6.60;99.90;;;;;;5033563;28;20460;-74
2021/03/13 07:35:39;;;;;;;3.07;1.13;;;6.60;99.90;;;;;;5033094;28;20442;-73
2021/03/13 07:38:10;;;;;;;3.23;0.90;;;6.60;99.90;;;;;;5026624;28;20948;-75
2021/03/13 07:40:40;;;;;;;3.30;1.20;;;6.60;99.90;;;;;;5031991;28;20823;-74
2021/03/13 07:43:09;;;;;;;5.07;1.37;;;6.60;99.90;;;;;;5031234;28;21022;-75
2021/03/13 07:45:36;;;;;;;1.83;0.80;;;6.50;99.90;;;;;;5034878;28;20437;-74
2021/03/13 07:48:02;;;;;;;10.40;0.90;;;6.50;99.90;;;;;;5030366;28;20453;-75
2021/03/13 07:50:28;;;;;;;2.23;0.80;;;6.50;99.90;;;;;;5033053;28;20523;-74
2021/03/13 07:52:55;;;;;;;1.30;0.90;;;6.50;99.90;;;;;;5027871;28;20519;-74
2021/03/13 07:55:24;;;;;;;2.93;0.70;;;6.30;99.90;;;;;;5028718;28;20223;-74
2021/03/13 07:57:51;;;;;;;2.43;0.70;;;6.20;99.90;;;;;;5025824;28;21193;-74
2021/03/13 08:00:17;;;;;;;0.90;0.60;;;6.10;1.00;;;;;;5028703;28;20450;-74
2021/03/13 08:02:46;;;;;;;2.03;0.77;;;5.90;99.90;;;;;;5029372;28;20590;-74
2021/03/13 08:05:15;;;;;;;1.20;0.70;;;5.80;99.90;;;;;;5029131;28;20870;-74
2021/03/13 08:08:07;;;;;;;1.10;0.70;;;5.80;1.00;;;;;;5032450;28;20698;-73
2021/03/13 08:10:42;;;;;;;1.10;0.60;;;5.70;99.90;;;;;;5026189;28;20589;-74
2021/03/13 08:13:10;;;;;;;0.90;0.60;;;5.80;99.90;;;;;;5030009;28;20569;-73
2021/03/13 08:15:39;;;;;;;1.87;0.70;;;5.80;10.10;;;;;;5031212;28;20877;-74
2021/03/13 08:18:05;;;;;;;2.93;0.67;;;5.80;26.40;;;;;;5024644;28;20436;-74
2021/03/13 08:20:33;;;;;;;2.70;0.70;;;5.80;1.00;;;;;;5011635;28;21087;-74
2021/03/13 08:23:11;;;;;;;4.07;1.10;;;5.80;1.00;;;;;;5027746;28;20224;-74
2021/03/13 08:25:58;;;;;;;1.10;0.60;;;5.70;1.00;;;;;;5028837;28;20800;-73
2021/03/13 08:28:48;;;;;;;2.50;0.90;;;5.70;1.00;;;;;;5030714;28;21006;-73
2021/03/13 08:31:23;;;;;;;1.10;0.80;;;5.80;1.00;;;;;;5028231;28;21495;-74
2021/03/13 08:33:49;;;;;;;3.57;0.70;;;5.90;1.00;;;;;;5033352;28;20446;-74
2021/03/13 08:36:16;;;;;;;1.60;0.70;;;5.80;1.00;;;;;;5029825;28;20449;-73
2021/03/13 08:39:11;;;;;;;2.47;1.10;;;5.90;1.00;;;;;;5030835;28;20503;-73
2021/03/13 08:41:45;;;;;;;2.23;0.90;;;5.90;1.00;;;;;;5032440;28;20532;-74
2021/03/13 08:44:26;;;;;;;2.97;1.33;;;5.90;1.00;;;;;;5027482;28;21017;-73
2021/03/13 08:47:05;;;;;;;3.43;1.27;;;5.90;1.00;;;;;;5029181;28;20874;-73
2021/03/13 08:49:31;;;;;;;4.70;0.80;;;6.00;1.00;;;;;;5029442;28;21482;-74
2021/03/13 08:52:03;;;;;;;3.50;0.90;;;6.00;1.00;;;;;;5024763;28;20469;-74
2021/03/13 08:54:41;;;;;;;1.70;1.10;;;6.00;1.00;;;;;;5021138;28;20187;-74
2021/03/13 08:57:12;;;;;;;4.90;1.17;;;6.10;1.00;;;;;;5031648;28;20815;-74
2021/03/13 08:59:40;;;;;;;6.67;1.30;;;6.10;1.00;;;;;;5026633;28;21025;-72
2021/03/13 09:02:12;;;;;;;2.70;0.93;;;6.10;1.00;;;;;;5023204;28;20433;-73
2021/03/13 09:04:39;;;;;;;4.20;1.30;;;6.10;1.00;;;;;;5025166;28;21530;-73
2021/03/13 09:07:06;;;;;;;3.43;1.10;;;6.10;1.00;;;;;;5021324;28;20520;-73
2021/03/13 09:09:35;;;;;;;1.63;0.90;;;6.20;1.00;;;;;;5021863;28;20447;-73
2021/03/13 09:12:07;;;;;;;3.60;1.10;;;6.20;1.00;;;;;;5018468;28;20749;-73
2021/03/13 09:14:34;;;;;;;7.50;2.23;;;6.20;1.00;;;;;;5022987;28;20858;-73
2021/03/13 09:17:07;;;;;;;6.47;1.60;;;6.20;1.00;;;;;;5021102;28;20433;-74
2021/03/13 09:19:33;;;;;;;4.83;1.00;;;6.20;1.00;;;;;;5010530;28;20445;-73
2021/03/13 09:22:00;;;;;;;2.10;0.70;;;6.20;1.00;;;;;;4993547;28;20595;-73
2021/03/13 09:24:27;;;;;;;3.20;1.00;;;6.30;1.00;;;;;;5008934;28;21013;-73
2021/03/13 09:26:56;;;;;;;6.07;1.10;;;6.40;1.00;;;;;;5017633;28;20568;-73
2021/03/13 09:29:40;;;;;;;4.10;1.07;;;6.40;1.00;;;;;;5019389;28;20469;-72
2021/03/13 09:32:13;;;;;;;3.60;1.20;;;6.40;1.00;;;;;;5023050;28;20837;-72
2021/03/13 09:34:44;;;;;;;2.50;1.10;;;6.50;1.00;;;;;;5023093;28;20438;-73
2021/03/13 09:37:13;;;;;;;1.10;0.90;;;6.50;1.00;;;;;;5024851;28;20450;-73
2021/03/13 09:39:40;;;;;;;1.93;0.70;;;6.60;1.00;;;;;;5022675;28;20444;-74
2021/03/13 09:42:16;;;;;;;4.20;1.63;;;6.60;1.00;;;;;;5026012;28;20442;-74
2021/03/13 09:44:58;;;;;;;6.10;1.60;;;6.60;1.00;;;;;;5027385;28;20464;-74
2021/03/13 09:47:41;;;;;;;3.23;1.30;;;6.70;1.00;;;;;;5028694;28;20448;-74
2021/03/13 09:50:11;;;;;;;2.60;0.90;;;6.70;1.00;;;;;;5026085;28;20491;-74
2021/03/13 09:52:42;;;;;;;2.30;0.90;;;6.80;1.00;;;;;;5025902;28;20440;-74
2021/03/13 09:55:09;;;;;;;6.67;1.30;;;6.80;1.00;;;;;;5025523;28;20825;-73
2021/03/13 09:57:36;;;;;;;6.20;1.20;;;6.80;1.00;;;;;;5030704;28;20457;-74
2021/03/13 10:00:08;;;;;;;3.00;1.03;;;6.70;1.00;;;;;;5041370;28;20502;-73
2021/03/13 10:02:34;;;;;;;3.10;1.60;;;6.60;1.00;;;;;;5027070;28;20463;-74
2021/03/13 10:05:00;;;;;;;3.73;1.40;;;6.60;1.00;;;;;;5010417;28;20499;-74
2021/03/13 10:07:26;;;;;;;6.17;1.30;;;6.50;1.00;;;;;;5025224;28;20448;-73
2021/03/13 10:09:58;;;;;;;4.33;1.20;;;6.50;1.00;;;;;;5026052;28;20453;-73
2021/03/13 10:12:35;;;;;;;7.47;2.23;;;6.50;1.00;;;;;;5032676;28;20441;-73
2021/03/13 10:15:30;;;;;;;5.40;1.37;;;6.60;1.00;;;;;;5029445;28;20871;-73
2021/03/13 10:18:00;;;;;;;9.23;1.77;;;6.50;1.00;;;;;;5033269;28;20438;-73
2021/03/13 10:20:35;;;;;;;5.60;1.60;;;6.70;1.00;;;;;;5028217;28;20911;-74
2021/03/13 10:23:12;;;;;;;5.90;1.87;;;6.80;1.00;;;;;;5027114;28;20456;-73
2021/03/13 10:25:43;;;;;;;2.80;1.30;;;6.90;1.00;;;;;;5027851;28;20448;-73
2021/03/13 10:28:11;;;;;;;4.37;1.67;;;7.10;1.00;;;;;;5028228;28;20465;-74
2021/03/13 10:30:39;;;;;;;5.20;1.73;;;7.30;1.00;;;;;;5027189;28;20559;-76
2021/03/13 10:33:05;;;;;;;5.33;1.60;;;7.40;1.00;;;;;;5036737;28;20488;-73
2021/03/13 10:35:31;;;;;;;3.50;1.53;;;7.50;1.00;;;;;;5028640;28;20967;-75
2021/03/13 10:38:02;;;;;;;6.30;1.40;;;7.50;1.00;;;;;;5026752;28;21180;-74
2021/03/13 10:40:32;;;;;;;4.80;1.47;;;7.60;1.00;;;;;;5027870;28;20537;-73
2021/03/13 10:43:14;;;;;;;6.47;2.07;;;7.50;1.00;;;;;;5027220;28;20892;-73
2021/03/13 10:46:01;;;;;;;6.37;1.30;;;7.60;1.00;;;;;;5029455;28;20439;-74
2021/03/13 10:48:35;;;;;;;9.40;1.80;;;7.90;1.00;;;;;;5034520;28;20484;-73
2021/03/13 10:51:03;;;;;;;6.10;1.43;;;8.00;1.00;;;;;;5029177;28;20440;-74
2021/03/13 10:53:31;;;;;;;5.60;1.77;;;7.80;1.00;;;;;;5017183;28;20440;-73
2021/03/13 10:56:01;;;;;;;4.10;1.50;;;7.70;1.00;;;;;;5029151;28;20491;-74
2021/03/13 10:58:35;;;;;;;7.43;1.97;;;7.70;1.00;;;;;;5027568;28;20935;-74
2021/03/13 11:01:04;;;;;;;4.17;1.20;;;7.70;1.00;;;;;;5029238;28;20935;-73
2021/03/13 11:03:29;;;;;;;7.30;1.60;;;7.60;1.00;;;;;;5031066;28;20596;-73
2021/03/13 11:05:55;;;;;;;15.70;1.90;;;7.60;1.00;;;;;;5020667;28;20458;-74
2021/03/13 11:08:22;;;;;;;14.03;2.00;;;7.90;1.00;;;;;;5031735;28;20643;-74
2021/03/13 11:10:50;;;;;;;6.20;1.60;;;8.10;1.00;;;;;;5029080;28;21080;-73
2021/03/13 11:13:16;;;;;;;8.93;1.97;;;8.30;1.00;;;;;;5014070;28;20500;-73
2021/03/13 11:15:43;;;;;;;11.03;2.17;;;8.10;1.00;;;;;;5018948;28;20447;-74
2021/03/13 11:18:09;;;;;;;8.83;2.07;;;8.00;1.00;;;;;;5025738;28;20450;-73
2021/03/13 11:20:36;;;;;;;8.07;1.77;;;7.90;1.00;;;;;;5027965;28;20463;-73
2021/03/13 11:23:03;;;;;;;9.33;1.90;;;7.70;1.00;;;;;;5032035;28;20557;-74
2021/03/13 11:25:28;;;;;;;5.30;1.40;;;7.40;1.00;;;;;;5029825;28;20842;-73
2021/03/13 11:27:55;;;;;;;12.27;3.60;;;6.80;1.00;;;;;;5033145;28;20995;-75
2021/03/13 11:30:21;;;;;;;7.00;2.33;;;6.50;1.00;;;;;;5029462;28;20315;-74
2021/03/13 11:32:47;;;;;;;5.20;2.30;;;6.60;23.70;;;;;;5026168;28;20470;-75
2021/03/13 11:35:13;;;;;;;14.03;2.23;;;7.00;1.00;;;;;;5025995;28;20480;-74
2021/03/13 11:37:40;;;;;;;10.03;1.73;;;7.30;1.00;;;;;;5023507;28;20527;-74
2021/03/13 11:40:08;;;;;;;4.53;1.83;;;7.40;1.00;;;;;;5039052;28;20877;-74
2021/03/13 11:42:34;;;;;;;17.53;3.10;;;7.60;1.00;;;;;;5036946;28;20466;-74
2021/03/13 11:45:02;;;;;;;9.47;1.97;;;7.90;1.00;;;;;;5036060;28;21087;-74
2021/03/13 11:47:28;;;;;;;8.90;2.57;;;8.00;1.00;;;;;;5032774;28;20548;-75
2021/03/13 11:49:54;;;;;;;8.90;2.60;;;8.40;1.00;;;;;;5037211;28;20444;-74
2021/03/13 11:52:21;;;;;;;21.17;2.93;;;8.40;1.00;;;;;;5037873;28;20239;-74
2021/03/13 11:54:49;;;;;;;8.73;2.40;;;8.50;1.00;;;;;;5028838;28;20907;-75
2021/03/13 11:57:16;;;;;;;6.87;2.00;;;8.60;1.00;;;;;;5033529;28;20447;-76
2021/03/13 11:59:44;;;;;;;10.77;3.77;;;8.70;1.00;;;;;;5027085;28;20472;-75
2021/03/13 12:02:11;;;;;;;9.10;2.47;;;8.50;1.00;;;;;;5025749;28;20538;-75
2021/03/13 12:04:37;;;;;;;7.77;2.20;;;8.20;1.00;;;;;;5030789;28;20575;-75
2021/03/13 12:07:02;;;;;;;13.67;1.93;;;8.10;1.00;;;;;;5035680;28;20815;-75
2021/03/13 12:09:28;;;;;;;6.10;2.27;;;8.40;1.00;;;;;;5030424;28;20430;-76
2021/03/13 12:11:54;;;;;;;6.67;1.37;;;8.70;1.00;;;;;;5034897;28;20174;-74
2021/03/13 12:14:19;;;;;;;6.90;1.77;;;8.90;1.00;;;;;;5030563;28;20263;-75
2021/03/13 12:16:45;;;;;;;3.93;1.90;;;8.90;1.00;;;;;;5023275;28;20194;-75
2021/03/13 12:19:12;;;;;;;7.80;2.30;;;8.60;1.00;;;;;;5028081;28;20207;-72
2021/03/13 12:21:39;;;;;;;3.90;1.07;;;8.70;1.00;;;;;;5032785;28;21538;-72
2021/03/13 12:24:07;;;;;;;15.93;2.43;;;8.70;1.00;;;;;;5025028;28;20478;-73
2021/03/13 12:26:33;;;;;;;6.73;1.90;;;8.50;1.00;;;;;;5033408;28;20445;-74
2021/03/13 12:28:58;;;;;;;7.97;1.73;;;8.20;1.00;;;;;;5027811;28;20471;-74
2021/03/13 12:31:24;;;;;;;9.20;2.33;;;8.20;1.00;;;;;;5035930;28;20547;-74
2021/03/13 12:33:50;;;;;;;8.63;1.90;;;8.20;1.00;;;;;;5031234;28;20582;-73
2021/03/13 12:36:15;;;;;;;11.00;2.20;;;8.10;1.00;;;;;;5035151;28;20310;-72
2021/03/13 12:38:41;;;;;;;10.30;2.97;;;8.10;1.00;;;;;;5030026;28;20572;-72
2021/03/13 12:41:07;;;;;;;7.03;2.20;;;8.10;1.00;;;;;;5023492;28;20185;-71
2021/03/13 12:43:34;;;;;;;25.07;2.20;;;8.00;1.00;;;;;;5028689;28;20290;-73
2021/03/13 12:46:00;;;;;;;4.33;1.90;;;8.00;1.00;;;;;;5039918;28;20792;-72
2021/03/13 12:48:27;;;;;;;7.57;1.80;;;7.90;1.00;;;;;;5034717;28;20506;-72
2021/03/13 12:50:53;;;;;;;5.43;1.70;;;7.60;1.00;;;;;;5023629;28;20623;-73
2021/03/13 12:53:20;;;;;;;2.00;1.03;;;7.10;1.00;;;;;;5027030;28;20450;-75
2021/03/13 12:55:45;;;;;;;4.03;1.50;;;6.50;1.00;;;;;;5035395;28;21241;-76
2021/03/13 12:58:11;;;;;;;4.03;1.20;;;6.10;1.00;;;;;;5027167;28;20454;-75
2021/03/13 13:00:39;;;;;;;2.70;1.13;;;5.90;1.00;;;;;;5033595;28;20191;-75
2021/03/13 13:03:05;;;;;;;4.17;0.90;;;6.40;1.00;;;;;;5017019;28;20207;-73
2021/03/13 13:05:31;;;;;;;5.27;1.60;;;7.00;12.40;;;;;;5032599;28;20445;-73
2021/03/13 13:07:57;;;;;;;6.77;1.40;;;7.00;1.00;;;;;;5034641;28;20253;-72
2021/03/13 13:10:23;;;;;;;3.60;1.37;;;7.10;1.00;;;;;;5014115;28;20438;-73
2021/03/13 13:12:48;;;;;;;12.10;2.00;;;7.30;1.00;;;;;;5029796;28;20451;-73
2021/03/13 13:15:14;;;;;;;6.13;1.80;;;7.20;1.00;;;;;;5031180;28;20694;-73